Time;durP1;ratioP1;P1;durP2;ratioP2;P2;SDS_P1;SDS_P2;PMS_P1;PMS_P2;Temp;Humidity;BMP_temperature;BMP_pressure;BME280_temperature;BME280_humidity;BME280_pressure;Samples;Min_cycle;Max_cycle;Signal;HPM_P1;HPM_P2
2022/12/21 00:02:33;;;;;;;1.70;1.17;;;5.90;99.90;;;;;;21127706;28;20284;-67
2022/12/21 00:12:36;;;;;;;1.90;1.17;;;;;;;;;;21104166;28;20644;-67
2022/12/21 00:22:37;;;;;;;2.13;1.60;;;;;;;;;;21092719;28;20211;-67
2022/12/21 00:32:40;;;;;;;1.20;0.90;;;;;;;;;;21096626;28;20372;-68
2022/12/21 00:42:42;;;;;;;2.17;1.47;;;;;;;;;;21107487;28;20220;-67
2022/12/21 00:52:43;;;;;;;2.87;1.30;;;;;;;;;;21107087;28;20280;-67
2022/12/21 01:02:45;;;;;;;0.63;0.50;;;;;;;;;;21089975;28;20216;-67
2022/12/21 01:12:48;;;;;;;2.60;1.30;;;;;;;;;;21105385;28;20207;-67
2022/12/21 01:22:50;;;;;;;2.07;1.03;;;;;;;;;;21104858;28;20285;-67
2022/12/21 01:32:52;;;;;;;1.70;0.87;;;;;;;;;;21104515;28;20590;-67
2022/12/21 01:42:54;;;;;;;1.47;1.00;;;;;;;;;;21103599;28;20579;-67
2022/12/21 01:53:01;;;;;;;1.40;1.03;;;7.00;99.90;;;;;;21118257;28;20586;-67
2022/12/21 02:03:05;;;;;;;1.70;0.80;;;;;;;;;;21085580;22;20688;-86
2022/12/21 02:13:10;;;;;;;1.03;0.70;;;;;;;;;;21007019;28;20286;-86
2022/12/21 02:23:23;;;;;;;0.67;0.50;;;;;;;;;;20986799;28;20772;-86
2022/12/21 02:33:25;;;;;;;2.00;0.80;;;;;;;;;;21035886;28;20208;-86
2022/12/21 02:44:13;;;;;;;0.50;0.30;;;7.20;99.90;;;;;;21013230;28;20213;-86
2022/12/21 02:54:16;;;;;;;1.20;0.80;;;;;;;;;;20870459;28;20268;-86
2022/12/21 03:04:40;;;;;;;1.00;0.83;;;;;;;;;;20913352;28;20226;-86
2022/12/21 03:14:47;;;;;;;1.63;0.90;;;;;;;;;;20915512;28;20593;-86
2022/12/21 03:24:53;;;;;;;1.57;1.00;;;;;;;;;;20913536;28;20233;-86
2022/12/21 03:34:58;;;;;;;1.13;0.70;;;;;;;;;;20916282;28;20198;-86
2022/12/21 03:45:02;;;;;;;1.57;0.93;;;;;;;;;;20940452;28;20795;-86
2022/12/21 03:55:11;;;;;;;0.93;0.70;;;;;;;;;;20892869;28;20267;-86
2022/12/21 04:05:20;;;;;;;2.23;1.13;;;;;;;;;;20911962;28;20259;-87
2022/12/21 04:15:24;;;;;;;1.10;0.73;;;;;;;;;;20894518;28;20213;-87
2022/12/21 04:46:13;;;;;;;1.43;0.90;;;;;;;;;;20908171;28;20248;-87
2022/12/21 04:56:15;;;;;;;1.33;0.90;;;;;;;;;;20891511;28;20222;-87
2022/12/21 05:06:18;;;;;;;1.57;0.80;;;;;;;;;;20907531;28;20214;-86
2022/12/21 05:16:21;;;;;;;0.93;0.73;;;;;;;;;;20908336;28;20275;-87
2022/12/21 05:26:23;;;;;;;0.73;0.50;;;;;;;;;;20982244;28;20220;-85
2022/12/21 05:36:25;;;;;;;1.60;1.10;;;;;;;;;;20994055;28;20274;-86
2022/12/21 05:46:26;;;;;;;0.80;0.53;;;;;;;;;;20994184;28;20225;-86
2022/12/21 05:56:29;;;;;;;1.07;0.80;;;;;;;;;;20971562;28;20243;-86
2022/12/21 06:06:31;;;;;;;3.60;1.00;;;;;;;;;;20973904;28;20224;-87
2022/12/21 06:16:32;;;;;;;1.37;0.70;;;;;;;;;;20968850;28;20221;-86
2022/12/21 06:26:34;;;;;;;1.30;1.10;;;;;;;;;;20969343;28;20255;-86
2022/12/21 06:36:36;;;;;;;1.03;0.67;;;;;;;;;;20977067;28;20258;-87
2022/12/21 06:46:38;;;;;;;2.43;0.77;;;;;;;;;;20983157;28;20225;-86
2022/12/21 06:56:40;;;;;;;1.70;0.77;;;;;;;;;;20984965;28;20283;-86
2022/12/21 07:06:42;;;;;;;0.80;0.43;;;;;;;;;;20967030;28;20574;-86
2022/12/21 07:16:43;;;;;;;1.27;0.63;;;;;;;;;;20999936;28;20619;-86
2022/12/21 07:26:45;;;;;;;2.00;0.93;;;;;;;;;;20997984;28;20229;-86
2022/12/21 07:36:47;;;;;;;0.60;0.60;;;;;;;;;;20983700;28;20751;-85
2022/12/21 07:46:49;;;;;;;0.70;0.60;;;;;;;;;;20983046;28;20788;-85
2022/12/21 07:56:54;;;;;;;1.73;0.97;;;;;;;;;;21004588;28;20217;-87
2022/12/21 08:06:58;;;;;;;0.57;0.43;;;;;;;;;;20958564;28;20286;-86
2022/12/21 08:17:00;;;;;;;1.30;0.80;;;;;;;;;;21018923;28;20225;-86
2022/12/21 08:27:02;;;;;;;0.70;0.53;;;;;;;;;;20978895;28;20221;-86
2022/12/21 08:37:04;;;;;;;1.67;0.93;;;;;;;;;;20953019;28;20214;-86
2022/12/21 08:47:06;;;;;;;1.40;0.83;;;;;;;;;;20958757;28;20222;-86
2022/12/21 08:57:09;;;;;;;1.27;0.80;;;;;;;;;;20955236;28;20567;-86
2022/12/21 09:07:10;;;;;;;1.37;0.87;;;;;;;;;;20939769;28;20260;-86
2022/12/21 09:17:12;;;;;;;1.77;0.90;;;;;;;;;;20957537;28;20205;-86
2022/12/21 09:27:14;;;;;;;1.20;1.00;;;;;;;;;;20960432;28;20233;-86
2022/12/21 09:37:17;;;;;;;1.10;0.83;;;;;;;;;;20951257;28;20202;-86
2022/12/21 09:47:20;;;;;;;1.20;0.80;;;;;;;;;;20902027;28;20230;-87
2022/12/21 09:57:26;;;;;;;4.53;0.80;;;;;;;;;;21019172;28;20278;-86
2022/12/21 10:07:41;;;;;;;0.90;0.60;;;;;;;;;;21014230;28;20228;-85
2022/12/21 10:17:48;;;;;;;0.87;0.70;;;;;;;;;;21009373;28;20248;-85
2022/12/21 10:27:52;;;;;;;1.57;0.93;;;;;;;;;;21007969;28;20282;-85
2022/12/21 10:38:19;;;;;;;0.53;0.40;;;;;;;;;;20998517;28;20197;-87
2022/12/21 10:49:27;;;;;;;1.77;0.90;;;;;;;;;;20938114;28;20306;-86
2022/12/21 10:59:30;;;;;;;2.47;0.70;;;;;;;;;;20992506;28;20209;-85
2022/12/21 11:09:40;;;;;;;0.57;0.50;;;;;;;;;;20973423;28;20310;-85
2022/12/21 11:19:41;;;;;;;2.63;1.43;;;;;;;;;;21005074;28;20270;-86
2022/12/21 11:29:55;;;;;;;1.13;0.70;;;;;;;;;;20971297;28;20318;-86
2022/12/21 11:39:57;;;;;;;2.40;1.47;;;;;;;;;;20988094;28;20247;-86
2022/12/21 11:50:04;;;;;;;1.70;0.83;;;;;;;;;;20970108;28;20233;-85
2022/12/21 12:00:09;;;;;;;1.00;0.87;;;;;;;;;;20966894;28;20571;-85
2022/12/21 12:10:42;;;;;;;1.03;0.80;;;9.30;99.90;;;;;;21014901;28;20222;-88
2022/12/21 12:20:51;;;;;;;1.30;0.83;;;;;;;;;;20955774;28;20752;-84
2022/12/21 12:30:53;;;;;;;0.90;0.70;;;;;;;;;;21024446;28;20565;-85
2022/12/21 12:41:02;;;;;;;1.03;0.70;;;;;;;;;;20982489;28;20255;-87
2022/12/21 12:51:23;;;;;;;1.23;0.80;;;9.30;99.90;;;;;;20981002;28;20210;-87
2022/12/21 13:01:50;;;;;;;1.33;0.83;;;9.50;99.90;;;;;;20965748;28;20217;-87
2022/12/21 13:11:59;;;;;;;3.20;0.67;;;;;;;;;;20975669;28;20267;-87
2022/12/21 13:22:04;;;;;;;1.43;0.67;;;;;;;;;;21063548;28;20269;-86
2022/12/21 13:32:12;;;;;;;1.57;0.70;;;;;;;;;;21107971;28;20755;-87
2022/12/21 13:42:17;;;;;;;0.70;0.53;;;;;;;;;;21012696;28;20240;-87
2022/12/21 13:52:27;;;;;;;0.87;0.70;;;;;;;;;;21064767;27;20214;-85
2022/12/21 14:02:29;;;;;;;1.23;0.60;;;;;;;;;;20978918;28;20233;-86
2022/12/21 14:12:58;;;;;;;1.10;0.50;;;;;;;;;;21002336;28;20282;-86
2022/12/21 14:23:03;;;;;;;0.93;0.50;;;;;;;;;;20926728;28;20218;-86
2022/12/21 14:33:13;;;;;;;1.07;0.60;;;;;;;;;;20942267;28;20282;-86
2022/12/21 14:43:17;;;;;;;0.70;0.50;;;;;;;;;;20988144;28;20286;-86
2022/12/21 14:53:22;;;;;;;0.87;0.50;;;;;;;;;;20950340;28;20507;-86
2022/12/21 15:03:24;;;;;;;0.57;0.43;;;;;;;;;;21005391;28;20545;-86
2022/12/21 15:13:33;;;;;;;1.47;0.80;;;;;;;;;;21032274;28;20243;-86
2022/12/21 15:23:35;;;;;;;0.60;0.50;;;;;;;;;;21062127;28;20232;-85
2022/12/21 15:33:39;;;;;;;1.03;0.30;;;;;;;;;;21050667;28;20570;-88
2022/12/21 15:43:47;;;;;;;0.60;0.43;;;;;;;;;;20929034;28;20853;-87
2022/12/21 15:54:03;;;;;;;0.80;0.40;;;;;;;;;;20918960;28;20673;-87
2022/12/21 16:04:09;;;;;;;0.63;0.50;;;;;;;;;;20991284;28;20228;-87
2022/12/21 16:14:12;;;;;;;0.30;0.30;;;;;;;;;;20951663;28;20526;-87
2022/12/21 16:24:15;;;;;;;0.30;0.30;;;;;;;;;;20891529;28;20218;-87
2022/12/21 16:34:23;;;;;;;0.33;0.30;;;;;;;;;;20956189;28;20220;-88
2022/12/21 16:44:35;;;;;;;0.63;0.40;;;;;;;;;;20984566;28;20233;-87
2022/12/21 16:54:43;;;;;;;0.47;0.30;;;;;;;;;;20974031;28;20213;-87
2022/12/21 17:04:47;;;;;;;0.30;0.30;;;;;;;;;;20988544;28;20232;-87
2022/12/21 17:14:50;;;;;;;0.23;0.23;;;;;;;;;;20944882;28;20213;-87
2022/12/21 17:25:22;;;;;;;1.03;0.60;;;;;;;;;;20931427;28;20226;-86
2022/12/21 17:35:24;;;;;;;0.57;0.33;;;;;;;;;;20935313;28;20216;-87
2022/12/21 17:45:27;;;;;;;0.93;0.30;;;;;;;;;;21014419;28;20254;-87
2022/12/21 17:55:29;;;;;;;0.37;0.30;;;;;;;;;;20970975;28;20209;-88
2022/12/21 18:05:32;;;;;;;0.30;0.30;;;;;;;;;;20987358;28;20297;-87
2022/12/21 18:15:35;;;;;;;0.83;0.50;;;;;;;;;;20987165;28;20205;-87
2022/12/21 18:25:37;;;;;;;1.47;0.90;;;;;;;;;;20971321;28;20217;-87
2022/12/21 18:35:39;;;;;;;1.53;1.20;;;;;;;;;;20930478;28;20243;-87
2022/12/21 18:45:41;;;;;;;4.40;0.97;;;;;;;;;;20964908;28;20243;-87
2022/12/21 18:55:43;;;;;;;1.07;0.60;;;;;;;;;;20942616;28;20217;-87
2022/12/21 19:05:45;;;;;;;3.30;0.60;;;;;;;;;;20956610;28;20244;-87
2022/12/21 19:15:47;;;;;;;2.10;0.70;;;;;;;;;;20919312;28;20279;-87
2022/12/21 19:25:49;;;;;;;0.77;0.50;;;;;;;;;;20938931;28;20229;-86
2022/12/21 19:35:51;;;;;;;1.03;0.50;;;;;;;;;;20959045;28;20221;-88
2022/12/21 19:45:52;;;;;;;0.93;0.60;;;;;;;;;;21026964;28;20232;-87
2022/12/21 19:55:55;;;;;;;0.70;0.40;;;;;;;;;;20962906;28;20279;-87
2022/12/21 20:05:57;;;;;;;0.60;0.50;;;;;;;;;;20942908;28;20229;-87
2022/12/21 20:15:59;;;;;;;1.37;0.60;;;;;;;;;;21002858;28;20217;-87
2022/12/21 20:26:22;;;;;;;0.73;0.60;;;;;;;;;;20979581;28;20229;-87
2022/12/21 20:36:24;;;;;;;0.90;0.67;;;;;;;;;;20997703;28;20236;-87
2022/12/21 20:46:31;;;;;;;1.70;0.80;;;;;;;;;;20979963;28;20208;-87
2022/12/21 20:56:34;;;;;;;2.00;0.90;;;;;;;;;;20992534;28;20693;-88
2022/12/21 21:06:36;;;;;;;1.13;0.73;;;;;;;;;;20967441;28;20225;-87
2022/12/21 21:16:38;;;;;;;1.67;1.10;;;;;;;;;;20981640;28;20209;-86
2022/12/21 21:26:40;;;;;;;1.67;1.00;;;;;;;;;;20979958;28;20228;-86
2022/12/21 21:36:44;;;;;;;1.10;0.70;;;;;;;;;;20895548;28;20244;-87
2022/12/21 21:46:47;;;;;;;1.03;0.70;;;;;;;;;;20878949;28;20321;-87
2022/12/21 21:56:53;;;;;;;1.27;0.80;;;;;;;;;;20958308;28;20217;-87
2022/12/21 22:06:55;;;;;;;5.30;1.10;;;;;;;;;;21014795;28;20271;-87
2022/12/21 22:16:57;;;;;;;0.80;0.67;;;;;;;;;;20996626;28;20221;-87
2022/12/21 22:47:40;;;;;;;1.97;0.70;;;;;;;;;;20994472;28;20282;-88
2022/12/21 22:57:42;;;;;;;0.97;0.47;;;;;;;;;;21051094;28;20225;-87
2022/12/21 23:07:44;;;;;;;0.63;0.43;;;;;;;;;;21026692;28;20228;-87
2022/12/21 23:28:07;;;;;;;0.30;0.30;;;;;;;;;;21090894;28;20637;-86
